Time;durP1;ratioP1;P1;durP2;ratioP2;P2;SDS_P1;SDS_P2;PMS_P1;PMS_P2;Temp;Humidity;BMP_temperature;BMP_pressure;BME280_temperature;BME280_humidity;BME280_pressure;Samples;Min_cycle;Max_cycle;Signal;HPM_P1;HPM_P2
2024/03/01 00:00:42;;;;;;;41.90;28.50;;;;;;;4.23;100.00;101088.40;87621;271;136206;-71
2024/03/01 00:02:44;;;;;;;45.50;27.90;;;;;;;4.23;100.00;101087.42;87564;270;25111;-73
2024/03/01 00:04:46;;;;;;;35.50;26.60;;;;;;;4.23;100.00;101085.45;87528;277;137519;-70
2024/03/01 00:06:47;;;;;;;42.80;27.70;;;;;;;4.25;100.00;101090.02;87714;270;22555;-74
2024/03/01 00:08:49;;;;;;;43.50;27.90;;;;;;;4.26;100.00;101089.80;87491;265;138447;-70
2024/03/01 00:10:51;;;;;;;42.60;28.30;;;;;;;4.27;100.00;101094.95;87621;273;22706;-72
2024/03/01 00:12:52;;;;;;;36.40;28.10;;;;;;;4.26;100.00;101090.78;87477;273;137331;-70
2024/03/01 00:14:54;;;;;;;40.40;29.00;;;;;;;4.24;100.00;101090.66;87726;269;22578;-70
2024/03/01 00:16:56;;;;;;;37.70;28.20;;;;;;;4.18;100.00;101096.77;87526;264;137475;-74
2024/03/01 00:18:58;;;;;;;43.70;29.70;;;;;;;4.12;100.00;101097.30;87767;270;24267;-70
2024/03/01 00:21:00;;;;;;;41.90;29.20;;;;;;;4.08;100.00;101098.63;87431;270;136249;-69
2024/03/01 00:23:01;;;;;;;41.80;29.60;;;;;;;4.03;100.00;101096.55;87544;264;22574;-71
2024/03/01 00:25:07;;;;;;;36.10;25.70;;;;;;;4.00;100.00;101089.44;87517;267;137772;-71
2024/03/01 00:27:09;;;;;;;41.00;28.20;;;;;;;3.98;100.00;101087.73;87827;271;22654;-73
2024/03/01 00:29:11;;;;;;;39.10;28.90;;;;;;;3.95;100.00;101088.98;87436;268;137159;-72
2024/03/01 00:31:12;;;;;;;43.90;29.00;;;;;;;3.92;100.00;101091.75;87610;273;22637;-70
2024/03/01 00:33:14;;;;;;;48.10;29.20;;;;;;;3.88;100.00;101091.69;87598;270;136848;-70
2024/03/01 00:35:16;;;;;;;36.80;27.60;;;;;;;3.86;100.00;101088.37;87584;270;22568;-73
2024/03/01 00:37:18;;;;;;;42.50;30.80;;;;;;;3.82;100.00;101084.77;87590;260;136263;-70
2024/03/01 00:39:20;;;;;;;37.10;28.00;;;;;;;3.81;100.00;101086.48;87561;269;22573;-72
2024/03/01 00:41:21;;;;;;;40.90;29.50;;;;;;;3.81;100.00;101086.63;87620;270;136166;-76
2024/03/01 00:43:23;;;;;;;40.10;29.30;;;;;;;3.80;100.00;101088.64;87614;273;22761;-76
2024/03/01 00:45:25;;;;;;;38.20;29.20;;;;;;;3.79;100.00;101085.77;87631;271;137428;-71
2024/03/01 00:47:27;;;;;;;42.30;30.20;;;;;;;3.77;100.00;101081.15;87629;262;25191;-71
2024/03/01 00:49:28;;;;;;;40.60;28.70;;;;;;;3.75;100.00;101080.26;87490;268;136332;-71
2024/03/01 00:51:30;;;;;;;42.00;29.40;;;;;;;3.74;100.00;101081.91;87591;268;23268;-71
2024/03/01 00:53:32;;;;;;;38.40;28.20;;;;;;;3.75;100.00;101082.52;87606;264;136921;-71
2024/03/01 00:55:34;;;;;;;40.50;27.00;;;;;;;3.76;100.00;101076.46;87513;273;22558;-72
2024/03/01 00:57:36;;;;;;;46.20;28.90;;;;;;;3.78;100.00;101074.59;87464;268;136972;-72
2024/03/01 00:59:38;;;;;;;38.20;28.90;;;;;;;3.78;100.00;101074.02;87587;269;22560;-72
2024/03/01 01:01:40;;;;;;;39.30;28.40;;;;;;;3.78;100.00;101074.94;87731;271;136685;-72
2024/03/01 01:03:42;;;;;;;46.80;32.40;;;;;;;3.76;100.00;101073.85;87698;272;22565;-72
2024/03/01 01:05:43;;;;;;;48.90;33.70;;;;;;;3.72;100.00;101069.96;87520;270;136176;-70
2024/03/01 01:07:45;;;;;;;45.40;31.50;;;;;;;3.66;100.00;101065.69;87402;272;22559;-80
2024/03/01 01:09:47;;;;;;;50.20;34.40;;;;;;;3.63;100.00;101064.70;87429;266;136191;-71
2024/03/01 01:11:49;;;;;;;49.00;34.00;;;;;;;3.60;100.00;101065.84;87565;267;22946;-70
2024/03/01 01:13:51;;;;;;;48.00;34.40;;;;;;;3.58;100.00;101064.98;87573;271;136432;-70
2024/03/01 01:15:53;;;;;;;49.80;32.80;;;;;;;3.57;100.00;101064.30;87702;264;25115;-71
2024/03/01 01:17:55;;;;;;;48.30;33.10;;;;;;;3.55;100.00;101064.33;87485;273;136020;-81
2024/03/01 01:19:57;;;;;;;48.50;32.90;;;;;;;3.52;100.00;101060.85;87560;273;25332;-72
2024/03/01 01:21:59;;;;;;;53.20;33.50;;;;;;;3.54;100.00;101060.40;87426;269;136712;-72
2024/03/01 01:24:01;;;;;;;49.00;31.40;;;;;;;3.57;100.00;101057.17;87605;276;22629;-70
2024/03/01 01:26:03;;;;;;;43.60;31.00;;;;;;;3.58;100.00;101056.38;87092;269;136904;-78
2024/03/01 01:28:07;;;;;;;43.60;31.90;;;;;;;3.57;100.00;101054.70;87495;273;137365;-70
2024/03/01 01:30:10;;;;;;;49.70;34.90;;;;;;;3.55;100.00;101053.21;87686;269;24339;-72
2024/03/01 01:32:11;;;;;;;48.50;33.30;;;;;;;3.51;100.00;101053.02;87643;276;136404;-72
2024/03/01 01:34:13;;;;;;;49.20;34.90;;;;;;;3.46;100.00;101049.78;87486;266;22548;-72
2024/03/01 01:36:15;;;;;;;42.50;31.30;;;;;;;3.40;100.00;101046.92;87593;267;136974;-71
2024/03/01 01:38:17;;;;;;;48.20;33.10;;;;;;;3.35;100.00;101045.59;87619;267;23416;-71
2024/03/01 01:40:18;;;;;;;49.30;34.50;;;;;;;3.30;100.00;101043.46;87521;267;136470;-73
2024/03/01 01:42:20;;;;;;;45.10;33.10;;;;;;;3.27;100.00;101044.28;87501;274;22572;-73
2024/03/01 01:44:22;;;;;;;45.70;33.10;;;;;;;3.22;100.00;101043.91;87429;273;136772;-71
2024/03/01 01:46:24;;;;;;;47.70;33.60;;;;;;;3.24;100.00;101041.16;87628;270;25133;-71
2024/03/01 01:48:25;;;;;;;51.50;33.00;;;;;;;3.27;100.00;101038.11;87460;268;138770;-71
2024/03/01 01:50:28;;;;;;;45.80;34.30;;;;;;;3.28;100.00;101039.23;87543;273;22888;-69
2024/03/01 01:52:31;;;;;;;50.70;33.30;;;;;;;3.27;100.00;101042.86;87561;268;136926;-71
2024/03/01 01:54:33;;;;;;;45.50;33.00;;;;;;;3.26;100.00;101043.85;87841;269;22548;-70
2024/03/01 01:56:36;;;;;;;62.70;37.90;;;;;;;3.24;100.00;101048.33;87320;269;137048;-71
2024/03/01 01:58:38;;;;;;;53.10;34.80;;;;;;;3.19;100.00;101046.86;87542;273;24202;-70
2024/03/01 02:00:40;;;;;;;48.10;32.40;;;;;;;3.10;100.00;101047.36;87466;268;136404;-70
2024/03/01 02:02:43;;;;;;;55.10;36.50;;;;;;;3.00;100.00;101047.11;87612;269;24023;-70
2024/03/01 02:04:45;;;;;;;47.30;34.70;;;;;;;2.91;100.00;101050.42;87724;268;136231;-72
2024/03/01 02:06:47;;;;;;;55.10;36.80;;;;;;;2.85;100.00;101047.44;87630;273;25236;-71
2024/03/01 02:08:49;;;;;;;53.10;35.10;;;;;;;2.83;100.00;101047.73;87484;268;136810;-69
2024/03/01 02:10:51;;;;;;;48.60;35.20;;;;;;;2.83;100.00;101042.15;87396;268;22624;-70
2024/03/01 02:12:57;;;;;;;53.40;36.30;;;;;;;2.81;100.00;101037.75;87447;273;137093;-72
2024/03/01 02:14:59;;;;;;;59.50;35.50;;;;;;;2.79;100.00;101037.02;87700;274;22573;-71
2024/03/01 02:17:01;;;;;;;55.30;35.60;;;;;;;2.80;100.00;101035.72;87520;273;136986;-73
2024/03/01 02:19:09;;;;;;;54.40;37.10;;;;;;;2.84;100.00;101033.98;87664;269;24049;-70
2024/03/01 02:21:13;;;;;;;54.90;37.80;;;;;;;2.88;100.00;101033.30;87387;271;136151;-71
2024/03/01 02:23:18;;;;;;;61.20;37.30;;;;;;;2.91;100.00;101033.41;87620;273;25177;-70
2024/03/01 02:25:19;;;;;;;59.30;39.10;;;;;;;2.93;100.00;101031.14;87538;269;136402;-72
2024/03/01 02:27:21;;;;;;;55.20;38.30;;;;;;;2.95;100.00;101035.55;87611;270;23560;-72
2024/03/01 02:29:23;;;;;;;54.10;36.80;;;;;;;2.97;100.00;101035.40;86933;273;758807;-71
2024/03/01 02:31:25;;;;;;;58.20;38.60;;;;;;;2.98;100.00;101033.63;87557;277;25079;-71
2024/03/01 02:33:26;;;;;;;51.80;35.30;;;;;;;2.99;100.00;101028.05;87550;273;136568;-73
2024/03/01 02:35:28;;;;;;;52.30;37.20;;;;;;;3.06;100.00;101024.71;87558;277;22581;-73
2024/03/01 02:37:30;;;;;;;56.20;36.70;;;;;;;3.13;100.00;101030.27;87550;270;136997;-70
2024/03/01 02:39:32;;;;;;;57.90;36.30;;;;;;;3.18;100.00;101028.27;87570;274;22847;-73
2024/03/01 02:41:34;;;;;;;54.90;35.50;;;;;;;3.23;100.00;101031.42;87457;268;137298;-70
2024/03/01 02:43:36;;;;;;;46.70;33.30;;;;;;;3.25;100.00;101032.48;87701;269;25108;-70
2024/03/01 02:45:38;;;;;;;52.60;35.40;;;;;;;3.23;100.00;101030.54;87626;274;136463;-69
2024/03/01 02:47:39;;;;;;;53.30;37.90;;;;;;;3.14;100.00;101031.58;87620;270;22585;-71
2024/03/01 02:49:41;;;;;;;50.90;35.80;;;;;;;3.07;100.00;101034.62;87490;265;136332;-70
2024/03/01 02:51:44;;;;;;;52.90;38.20;;;;;;;3.01;100.00;101033.73;87628;270;23997;-71
2024/03/01 02:53:46;;;;;;;57.00;38.10;;;;;;;2.97;100.00;101034.68;87482;273;137867;-71
2024/03/01 02:55:47;;;;;;;57.10;40.20;;;;;;;2.98;100.00;101033.08;87492;274;23562;-74
2024/03/01 02:57:51;;;;;;;67.10;39.50;;;;;;;2.99;100.00;101028.40;87392;272;137438;-69
2024/03/01 02:59:53;;;;;;;56.30;36.90;;;;;;;3.04;100.00;101031.36;87656;268;25094;-71
2024/03/01 03:01:54;;;;;;;54.10;39.70;;;;;;;3.11;100.00;101035.13;87448;273;136966;-70
2024/03/01 03:03:56;;;;;;;55.50;39.40;;;;;;;3.16;100.00;101033.04;87757;273;22566;-72
2024/03/01 03:05:58;;;;;;;55.20;39.00;;;;;;;3.18;100.00;101031.84;87987;273;136955;-69
2024/03/01 03:08:00;;;;;;;59.30;37.60;;;;;;;3.19;100.00;101028.89;87249;270;22860;-71
2024/03/01 03:10:03;;;;;;;55.10;36.70;;;;;;;3.21;100.00;101028.23;87633;267;22545;-71
2024/03/01 03:12:06;;;;;;;50.70;37.90;;;;;;;3.20;100.00;101031.84;87466;273;137459;-70
2024/03/01 03:14:08;;;;;;;51.20;37.40;;;;;;;3.17;100.00;101031.17;87537;273;22577;-68
2024/03/01 03:16:10;;;;;;;55.80;39.20;;;;;;;3.13;100.00;101029.39;87419;273;136487;-71
2024/03/01 03:18:11;;;;;;;55.80;38.00;;;;;;;3.09;100.00;101031.62;87520;273;22568;-70
2024/03/01 03:20:15;;;;;;;54.30;36.60;;;;;;;3.06;100.00;101030.27;87452;270;136437;-71
2024/03/01 03:22:18;;;;;;;60.60;39.80;;;;;;;3.03;100.00;101026.48;87578;273;24010;-71
2024/03/01 03:24:19;;;;;;;51.50;38.00;;;;;;;3.01;100.00;101031.74;87433;270;136405;-70
2024/03/01 03:26:21;;;;;;;58.90;39.30;;;;;;;3.00;100.00;101028.72;87549;273;22571;-69
2024/03/01 03:28:24;;;;;;;54.60;35.50;;;;;;;3.00;100.00;101028.14;87538;266;136953;-70
2024/03/01 03:30:26;;;;;;;52.00;36.60;;;;;;;3.04;100.00;101029.95;87592;273;22568;-71
2024/03/01 03:32:27;;;;;;;56.20;39.00;;;;;;;3.07;100.00;101034.27;87415;273;138002;-71
2024/03/01 03:34:29;;;;;;;59.90;38.90;;;;;;;3.11;100.00;101033.08;87611;270;22573;-70
2024/03/01 03:36:32;;;;;;;58.50;36.50;;;;;;;3.15;100.00;101031.18;87556;268;136920;-70
2024/03/01 03:38:33;;;;;;;69.90;43.00;;;;;;;3.19;100.00;101026.34;87510;264;22556;-71
2024/03/01 03:40:35;;;;;;;76.20;47.80;;;;;;;3.19;100.00;101025.41;87432;273;136324;-71
2024/03/01 03:42:37;;;;;;;71.40;49.70;;;;;;;3.17;100.00;101029.40;87560;273;22586;-70
2024/03/01 03:44:39;;;;;;;70.50;50.40;;;;;;;3.15;100.00;101026.08;87352;269;137338;-72
2024/03/01 03:46:41;;;;;;;70.80;49.40;;;;;;;3.12;100.00;101029.45;87510;268;23998;-69
2024/03/01 03:48:43;;;;;;;71.20;50.80;;;;;;;3.06;100.00;101029.64;87429;265;136171;-72
2024/03/01 03:50:45;;;;;;;68.30;48.70;;;;;;;2.99;100.00;101024.90;87552;273;22573;-70
2024/03/01 03:52:46;;;;;;;59.80;41.40;;;;;;;2.94;100.00;101025.96;87494;277;136115;-70
2024/03/01 03:54:48;;;;;;;50.20;38.10;;;;;;;2.91;100.00;101026.17;87575;270;22617;-70
2024/03/01 03:56:50;;;;;;;51.30;37.40;;;;;;;2.88;100.00;101029.45;87511;270;136934;-70
2024/03/01 03:58:52;;;;;;;60.00;39.30;;;;;;;2.84;100.00;101027.48;87601;273;23130;-70
2024/03/01 04:00:55;;;;;;;50.90;37.00;;;;;;;2.80;100.00;101022.67;87552;276;136861;-70
2024/03/01 04:02:57;;;;;;;52.90;36.10;;;;;;;2.79;100.00;101021.38;87337;268;25092;-68
2024/03/01 04:04:59;;;;;;;52.20;37.40;;;;;;;2.79;100.00;101022.98;87400;273;136931;-70
2024/03/01 04:07:01;;;;;;;49.80;38.00;;;;;;;2.76;100.00;101026.40;87370;265;26923;-70
2024/03/01 04:09:03;;;;;;;54.70;38.70;;;;;;;2.68;100.00;101030.34;87439;276;137040;-71
2024/03/01 04:11:06;;;;;;;55.30;37.60;;;;;;;2.61;100.00;101032.44;87596;265;25249;-71
2024/03/01 04:13:08;;;;;;;46.40;35.20;;;;;;;2.55;100.00;101030.46;87536;276;137519;-69
2024/03/01 04:15:10;;;;;;;50.10;35.70;;;;;;;2.50;100.00;101026.80;87603;265;22572;-73
2024/03/01 04:17:12;;;;;;;51.20;37.10;;;;;;;2.47;100.00;101022.58;87488;264;137537;-72
2024/03/01 04:19:14;;;;;;;46.90;36.10;;;;;;;2.46;100.00;101023.09;87570;269;22577;-77
2024/03/01 04:21:16;;;;;;;48.50;36.10;;;;;;;2.45;100.00;101022.94;87641;268;137172;-71
2024/03/01 04:23:17;;;;;;;49.40;35.40;;;;;;;2.49;100.00;101022.33;87667;273;24033;-71
2024/03/01 04:25:19;;;;;;;49.60;34.00;;;;;;;2.54;100.00;101027.02;87712;276;139420;-71
2024/03/01 04:27:21;;;;;;;53.70;34.20;;;;;;;2.58;100.00;101026.70;87590;273;24164;-73
2024/03/01 04:29:23;;;;;;;52.30;35.90;;;;;;;2.61;100.00;101028.40;87477;269;137009;-72
2024/03/01 04:31:25;;;;;;;49.20;34.20;;;;;;;2.63;100.00;101031.27;87596;268;22587;-72
2024/03/01 04:33:26;;;;;;;57.50;36.00;;;;;;;2.60;100.00;101031.09;87309;264;137810;-80
2024/03/01 04:35:29;;;;;;;46.80;36.20;;;;;;;2.56;100.00;101032.50;87633;270;25304;-72
2024/03/01 04:37:31;;;;;;;43.50;33.70;;;;;;;2.53;100.00;101033.95;87468;273;136345;-70
2024/03/01 04:39:33;;;;;;;48.50;35.40;;;;;;;2.48;100.00;101037.13;87534;265;24084;-70
2024/03/01 04:41:36;;;;;;;48.20;35.40;;;;;;;2.42;100.00;101034.98;87361;262;136100;-74
2024/03/01 04:43:37;;;;;;;45.00;31.90;;;;;;;2.33;100.00;101036.36;87755;269;22590;-69
2024/03/01 04:45:39;;;;;;;50.00;33.70;;;;;;;2.28;100.00;101045.67;87513;269;136803;-80
2024/03/01 04:47:41;;;;;;;45.10;33.00;;;;;;;2.25;100.00;101047.13;87703;271;25124;-71
2024/03/01 04:49:43;;;;;;;53.70;35.50;;;;;;;2.25;100.00;101049.60;87529;270;136859;-69
2024/03/01 04:51:45;;;;;;;44.50;32.70;;;;;;;2.27;100.00;101049.59;87760;274;22585;-70
2024/03/01 04:53:47;;;;;;;49.20;32.40;;;;;;;2.30;100.00;101049.36;87446;277;137061;-71
2024/03/01 04:55:49;;;;;;;40.10;31.10;;;;;;;2.32;100.00;101051.88;87605;265;22570;-69
2024/03/01 04:57:50;;;;;;;45.10;31.70;;;;;;;2.29;100.00;101055.38;87228;270;136356;-69
2024/03/01 04:59:52;;;;;;;48.20;32.80;;;;;;;2.24;100.00;101050.33;87263;274;22564;-70
2024/03/01 05:01:55;;;;;;;41.90;32.90;;;;;;;2.20;100.00;101046.45;87475;277;136427;-69
2024/03/01 05:03:57;;;;;;;51.50;36.60;;;;;;;2.17;100.00;101045.96;87361;277;24119;-70
2024/03/01 05:06:03;;;;;;;52.30;36.00;;;;;;;2.15;100.00;101050.50;87325;269;137678;-69
2024/03/01 05:08:07;;;;;;;57.00;38.80;;;;;;;2.13;100.00;101043.09;87410;273;136874;-72
2024/03/01 05:10:09;;;;;;;50.40;36.20;;;;;;;2.13;100.00;101040.80;87435;278;22568;-70
2024/03/01 05:12:15;;;;;;;57.70;35.70;;;;;;;2.17;100.00;101039.36;87267;277;137996;-73
2024/03/01 05:14:17;;;;;;;45.80;33.30;;;;;;;2.23;100.00;101042.95;87690;274;25169;-70
2024/03/01 05:16:19;;;;;;;54.30;39.00;;;;;;;2.28;100.00;101040.45;87424;269;138631;-70
2024/03/01 05:18:21;;;;;;;58.10;38.30;;;;;;;2.32;100.00;101044.17;87262;270;25326;-70
2024/03/01 05:20:22;;;;;;;54.60;38.10;;;;;;;2.35;100.00;101040.39;87523;262;137536;-72
2024/03/01 05:22:24;;;;;;;50.30;37.60;;;;;;;2.39;100.00;101047.98;87546;278;24064;-70
2024/03/01 05:24:26;;;;;;;47.50;33.90;;;;;;;2.41;100.00;101049.63;87499;269;137424;-70
2024/03/01 05:26:27;;;;;;;44.40;32.80;;;;;;;2.41;100.00;101056.64;87553;273;25143;-69
2024/03/01 05:28:29;;;;;;;44.20;33.00;;;;;;;2.40;100.00;101056.67;87479;275;137830;-69
2024/03/01 05:30:35;;;;;;;50.20;32.50;;;;;;;2.40;100.00;101056.91;87810;273;22562;-69
2024/03/01 05:32:51;;;;;;;44.30;31.70;;;;;;;2.35;100.00;101054.41;87516;277;136332;-72
2024/03/01 05:34:53;;;;;;;44.20;31.80;;;;;;;2.32;100.00;101056.09;87595;270;22556;-69
2024/03/01 05:36:55;;;;;;;42.80;30.00;;;;;;;2.32;100.00;101054.13;87548;266;136568;-70
2024/03/01 05:38:57;;;;;;;41.30;28.90;;;;;;;2.35;100.00;101058.09;87848;278;22681;-70
2024/03/01 05:41:00;;;;;;;40.80;30.60;;;;;;;2.39;100.00;101058.54;87698;273;137998;-71
2024/03/01 05:43:03;;;;;;;41.20;29.80;;;;;;;2.40;100.00;101064.78;87252;265;25159;-71
2024/03/01 05:45:07;;;;;;;41.80;28.10;;;;;;;2.39;100.00;101067.27;87728;272;138187;-72
2024/03/01 05:47:09;;;;;;;42.90;29.20;;;;;;;2.40;100.00;101072.14;87693;269;22635;-71
2024/03/01 05:49:11;;;;;;;41.20;30.90;;;;;;;2.38;100.00;101068.44;87532;269;136527;-73
2024/03/01 05:51:13;;;;;;;49.50;32.80;;;;;;;2.33;100.00;101071.41;87701;266;22590;-71
2024/03/01 05:53:15;;;;;;;42.60;32.40;;;;;;;2.34;100.00;101073.84;87640;275;136194;-69
2024/03/01 05:55:19;;;;;;;50.70;32.70;;;;;;;2.33;100.00;101073.69;87478;267;25073;-70
2024/03/01 05:57:21;;;;;;;46.40;34.10;;;;;;;2.33;100.00;101077.20;87436;267;136331;-76
2024/03/01 05:59:22;;;;;;;50.30;32.90;;;;;;;2.34;100.00;101078.36;87571;268;25132;-71
2024/03/01 06:01:25;;;;;;;42.70;31.30;;;;;;;2.39;100.00;101080.59;87486;270;137452;-73
2024/03/01 06:03:27;;;;;;;40.80;30.00;;;;;;;2.47;100.00;101081.05;87495;277;22567;-68
2024/03/01 06:05:28;;;;;;;46.30;32.30;;;;;;;2.55;100.00;101086.61;87023;275;137967;-71
2024/03/01 06:07:30;;;;;;;45.50;33.40;;;;;;;2.57;100.00;101093.09;87472;270;22568;-78
2024/03/01 06:09:32;;;;;;;57.10;37.50;;;;;;;2.58;100.00;101099.73;87416;269;137008;-71
2024/03/01 06:11:34;;;;;;;55.10;37.00;;;;;;;2.53;100.00;101102.35;87489;270;25194;-73
2024/03/01 06:13:38;;;;;;;71.80;44.00;;;;;;;2.45;100.00;101102.25;87497;267;136171;-69
2024/03/01 06:15:40;;;;;;;61.70;42.30;;;;;;;2.36;100.00;101096.25;87591;268;22648;-71
2024/03/01 06:17:42;;;;;;;59.80;41.90;;;;;;;2.29;100.00;101099.98;87450;277;136114;-72
2024/03/01 06:19:44;;;;;;;58.00;39.90;;;;;;;2.26;100.00;101101.27;87600;265;25247;-77
2024/03/01 06:21:46;;;;;;;56.10;40.30;;;;;;;2.27;100.00;101102.38;87552;268;137026;-73
2024/03/01 06:23:48;;;;;;;63.00;39.40;;;;;;;2.31;100.00;101100.55;87529;269;22549;-70
2024/03/01 06:25:50;;;;;;;57.70;40.80;;;;;;;2.37;100.00;101101.66;87543;270;136710;-72
2024/03/01 06:27:52;;;;;;;61.10;42.00;;;;;;;2.46;100.00;101100.27;87675;273;25060;-73
2024/03/01 06:32:24;;;;;;;66.10;45.70;;;;;;;2.53;100.00;101109.86;85945;291;603346;-71
2024/03/01 06:34:26;;;;;;;65.40;45.60;;;;;;;2.55;100.00;101106.27;86744;290;23936;-70
2024/03/01 06:36:28;;;;;;;65.40;44.00;;;;;;;2.57;100.00;101108.89;86346;291;137022;-71
2024/03/01 06:38:30;;;;;;;72.60;46.60;;;;;;;2.61;100.00;101107.23;87236;284;22651;-70
2024/03/01 06:40:35;;;;;;;68.50;47.50;;;;;;;2.65;100.00;101106.71;86999;284;137658;-73
2024/03/01 06:42:37;;;;;;;66.20;42.70;;;;;;;2.77;100.00;101101.07;87270;280;22711;-75
2024/03/01 06:44:39;;;;;;;64.70;43.80;;;;;;;2.90;100.00;101104.09;87018;276;137325;-79
2024/03/01 06:46:41;;;;;;;66.10;43.80;;;;;;;3.02;100.00;101107.73;86820;276;636068;-72
2024/03/01 06:48:42;;;;;;;59.90;43.50;;;;;;;3.13;100.00;101106.16;87036;275;136566;-69
2024/03/01 06:50:44;;;;;;;71.40;42.90;;;;;;;3.23;100.00;101105.14;87375;282;23149;-70
2024/03/01 06:52:46;;;;;;;66.90;45.10;;;;;;;3.34;100.00;101105.59;87235;275;137065;-70
2024/03/01 06:54:48;;;;;;;66.10;46.10;;;;;;;3.40;100.00;101106.67;87384;278;22631;-71
2024/03/01 06:56:50;;;;;;;67.40;44.70;;;;;;;3.44;100.00;101109.69;87327;274;135869;-70
2024/03/01 06:58:51;;;;;;;65.90;46.10;;;;;;;3.49;100.00;101110.67;87441;271;22589;-71
2024/03/01 07:00:53;;;;;;;68.20;46.20;;;;;;;3.55;100.00;101114.02;87061;274;136069;-70
2024/03/01 07:02:55;;;;;;;74.60;46.40;;;;;;;3.62;100.00;101115.78;87472;274;22573;-78
2024/03/01 07:04:58;;;;;;;66.30;46.10;;;;;;;3.69;100.00;101120.48;87291;282;135983;-73
2024/03/01 07:06:59;;;;;;;66.20;45.00;;;;;;;3.76;100.00;101126.47;87296;279;23154;-75
2024/03/01 07:09:01;;;;;;;69.60;46.80;;;;;;;3.80;100.00;101123.43;87212;276;136211;-71
2024/03/01 07:11:03;;;;;;;70.90;44.70;;;;;;;3.83;100.00;101123.88;87650;280;22571;-70
2024/03/01 07:13:05;;;;;;;80.20;46.10;;;;;;;3.86;100.00;101128.24;87329;272;137882;-72
2024/03/01 07:15:08;;;;;;;75.30;47.20;;;;;;;3.87;100.00;101128.89;87406;272;22560;-72
2024/03/01 07:17:10;;;;;;;65.70;44.40;;;;;;;3.88;100.00;101120.86;87516;272;136132;-71
2024/03/01 07:19:12;;;;;;;68.10;47.10;;;;;;;3.92;100.00;101123.86;87641;272;23958;-72
2024/03/01 07:21:14;;;;;;;73.20;48.20;;;;;;;3.97;100.00;101122.61;87613;269;136042;-70
2024/03/01 07:23:16;;;;;;;67.20;47.10;;;;;;;4.03;100.00;101124.89;87643;277;22844;-71
2024/03/01 07:25:18;;;;;;;64.30;46.30;;;;;;;4.14;100.00;101127.05;87509;276;136943;-72
2024/03/01 07:27:19;;;;;;;68.90;47.70;;;;;;;4.22;100.00;101127.75;87501;274;24004;-70
2024/03/01 07:29:21;;;;;;;78.60;48.10;;;;;;;4.26;100.00;101126.54;87355;269;137410;-73
2024/03/01 07:31:24;;;;;;;62.70;44.60;;;;;;;4.36;100.00;101125.70;87294;278;25214;-70
2024/03/01 07:33:26;;;;;;;69.70;45.00;;;;;;;4.48;100.00;101122.59;87352;269;136935;-70
2024/03/01 07:35:28;;;;;;;64.50;45.50;;;;;;;4.61;100.00;101119.89;87446;273;23446;-70
2024/03/01 07:37:30;;;;;;;64.90;43.80;;;;;;;4.77;99.65;101118.89;87356;268;136699;-71
2024/03/01 07:39:32;;;;;;;59.50;43.90;;;;;;;4.84;98.60;101122.99;87666;279;26188;-71
2024/03/01 07:41:34;;;;;;;60.30;44.70;;;;;;;4.90;99.13;101126.77;87433;279;135850;-71
2024/03/01 07:43:35;;;;;;;59.40;44.70;;;;;;;4.98;98.72;101122.55;87413;268;24145;-71
2024/03/01 07:45:37;;;;;;;69.70;44.00;;;;;;;5.06;97.39;101121.68;87431;270;136981;-71
2024/03/01 07:47:44;;;;;;;72.10;44.20;;;;;;;5.10;96.01;101124.86;87565;273;23085;-70
2024/03/01 07:49:49;;;;;;;62.10;43.70;;;;;;;5.15;96.15;101130.14;87437;269;136532;-69
2024/03/01 07:51:52;;;;;;;57.80;41.70;;;;;;;5.18;95.27;101127.84;87457;269;22578;-71
2024/03/01 07:53:54;;;;;;;59.90;45.50;;;;;;;5.22;95.04;101127.54;87454;268;135762;-72
2024/03/01 07:55:56;;;;;;;64.50;45.50;;;;;;;5.29;95.26;101130.27;87598;273;22664;-72
2024/03/01 07:57:58;;;;;;;59.50;42.30;;;;;;;5.38;94.98;101129.81;87442;276;135800;-72
2024/03/01 08:00:00;;;;;;;62.00;42.70;;;;;;;5.47;93.81;101127.67;87706;273;22580;-73
2024/03/01 08:02:03;;;;;;;59.40;40.20;;;;;;;5.53;93.54;101126.54;87486;270;135641;-69
2024/03/01 08:04:05;;;;;;;48.40;35.20;;;;;;;5.62;93.66;101119.60;87617;269;136271;-71
2024/03/01 08:06:07;;;;;;;54.30;37.10;;;;;;;5.71;91.27;101122.14;87603;269;22568;-69
2024/03/01 08:08:10;;;;;;;41.50;34.50;;;;;;;5.74;90.95;101119.11;87536;275;136982;-70
2024/03/01 08:10:15;;;;;;;56.70;36.40;;;;;;;5.75;90.93;101116.86;87640;266;22527;-73
2024/03/01 08:12:18;;;;;;;49.80;35.90;;;;;;;5.79;90.92;101117.03;87631;266;136159;-71
2024/03/01 08:14:25;;;;;;;50.30;35.00;;;;;;;5.83;90.28;101117.59;87645;265;25082;-71
2024/03/01 08:16:26;;;;;;;54.10;36.10;;;;;;;5.87;90.15;101114.89;87483;270;135591;-71
2024/03/01 08:18:29;;;;;;;42.30;32.90;;;;;;;5.92;89.63;101121.38;87419;279;23811;-71
2024/03/01 08:21:05;;;;;;;43.00;31.20;;;;;;;5.97;88.68;101121.30;87488;270;136995;-70
2024/03/01 08:23:11;;;;;;;41.50;31.90;;;;;;;6.05;88.66;101120.70;87691;266;24143;-71
2024/03/01 08:25:17;;;;;;;44.20;31.50;;;;;;;6.14;88.14;101115.37;87596;274;136760;-71
2024/03/01 08:27:23;;;;;;;44.60;30.10;;;;;;;6.22;86.74;101113.00;87747;269;23202;-71
2024/03/01 08:29:26;;;;;;;45.60;30.10;;;;;;;6.29;86.71;101110.48;87592;270;135846;-69
2024/03/01 08:31:35;;;;;;;38.00;28.60;;;;;;;6.38;86.48;101107.16;87671;277;22648;-77
2024/03/01 08:33:39;;;;;;;36.60;27.20;;;;;;;6.50;86.49;101107.92;87438;270;135668;-72
2024/03/01 08:35:42;;;;;;;47.30;29.90;;;;;;;6.63;85.62;101106.19;87597;270;23400;-72
2024/03/01 08:37:43;;;;;;;35.40;28.20;;;;;;;6.73;84.29;101107.44;87512;268;136147;-71
2024/03/01 08:39:46;;;;;;;43.40;30.10;;;;;;;6.76;83.32;101112.41;87567;268;22556;-69
2024/03/01 08:41:54;;;;;;;40.30;28.20;;;;;;;6.75;82.36;101111.21;87233;265;136005;-72
2024/03/01 08:43:57;;;;;;;44.00;28.90;;;;;;;6.72;81.81;101108.70;87512;274;22591;-68
2024/03/01 08:46:01;;;;;;;46.50;29.00;;;;;;;6.70;81.93;101109.23;87439;277;136749;-70
2024/03/01 08:48:13;;;;;;;47.10;29.90;;;;;;;6.71;82.05;101108.11;87516;269;137806;-71
2024/03/01 08:50:51;;;;;;;38.20;27.80;;;;;;;6.74;81.94;101108.71;87561;270;22639;-67
2024/03/01 08:52:55;;;;;;;33.90;24.40;;;;;;;6.82;80.36;101111.47;86899;281;136983;-69
2024/03/01 08:55:22;;;;;;;34.80;26.20;;;;;;;6.88;79.77;101107.63;87270;268;22568;-70
2024/03/01 08:57:29;;;;;;;39.30;24.70;;;;;;;6.99;79.70;101098.76;87182;274;135799;-70
2024/03/01 08:59:47;;;;;;;37.90;25.00;;;;;;;7.14;78.61;101102.27;87683;265;24177;-70
2024/03/01 09:01:49;;;;;;;37.20;24.10;;;;;;;7.32;78.70;101093.55;87479;277;136040;-70
2024/03/01 09:03:52;;;;;;;36.80;23.90;;;;;;;7.49;77.56;101093.77;87644;277;25092;-70
2024/03/01 09:05:55;;;;;;;36.30;26.10;;;;;;;7.64;76.29;101091.29;87448;273;135514;-73
2024/03/01 09:08:00;;;;;;;40.00;26.50;;;;;;;7.79;76.55;101091.91;87649;268;23618;-72
2024/03/01 09:10:05;;;;;;;34.60;25.10;;;;;;;7.93;75.36;101096.36;87410;270;136749;-71
2024/03/01 09:12:09;;;;;;;28.10;22.40;;;;;;;8.06;73.94;101101.51;87459;269;137539;-72
2024/03/01 09:14:26;;;;;;;29.00;22.20;;;;;;;8.15;72.70;101099.13;87647;270;22580;-72
2024/03/01 09:16:28;;;;;;;32.00;22.70;;;;;;;8.24;71.85;101093.46;87472;270;137322;-72
2024/03/01 09:18:45;;;;;;;35.20;22.50;;;;;;;8.31;72.26;101090.45;87291;273;24460;-73
2024/03/01 09:20:49;;;;;;;34.60;23.20;;;;;;;8.41;71.35;101086.96;87506;274;136436;-71
2024/03/01 09:22:52;;;;;;;31.00;22.10;;;;;;;8.48;68.62;101090.05;87582;277;23895;-75
2024/03/01 09:24:54;;;;;;;27.30;21.10;;;;;;;8.43;68.42;101090.16;87311;276;136085;-72